TimeMDT,TemperatureF,Dew PointF,Humidity,Sea Level PressureIn,VisibilityMPH,Wind Direction,Wind SpeedMPH,Gust SpeedMPH,PrecipitationIn,Events,Conditions,WindDirDegrees,DateUTC
12:51 AM,19.9,15.1,81,30.29,10.0,Calm,Calm,-,N/A,,Clear,0,2013-04-01 06:51:00
1:51 AM,19.9,14.0,78,30.29,10.0,Calm,Calm,-,N/A,,Clear,0,2013-04-01 07:51:00
2:51 AM,19.0,12.9,77,30.29,10.0,Calm,Calm,-,N/A,,Clear,0,2013-04-01 08:51:00
3:51 AM,19.9,15.1,81,30.28,10.0,Calm,Calm,-,N/A,,Mostly Cloudy,0,2013-04-01 09:51:00
4:51 AM,21.9,17.1,82,30.28,10.0,East,3.5,-,N/A,,Overcast,100,2013-04-01 10:51:00
5:51 AM,21.0,16.0,81,30.29,10.0,ESE,3.5,-,N/A,,Mostly Cloudy,110,2013-04-01 11:51:00
6:51 AM,19.0,14.0,81,30.30,9.0,ESE,4.6,-,N/A,,Clear,120,2013-04-01 12:51:00
7:51 AM,23.0,18.0,81,30.30,10.0,ESE,6.9,-,N/A,,Clear,110,2013-04-01 13:51:00
8:51 AM,27.0,19.9,75,30.29,10.0,SE,8.1,-,N/A,,Partly Cloudy,130,2013-04-01 14:51:00
9:51 AM,30.9,23.0,72,30.29,10.0,SE,5.8,-,N/A,,Overcast,130,2013-04-01 15:51:00
10:51 AM,35.1,21.9,59,30.28,10.0,ENE,4.6,-,N/A,,Mostly Cloudy,70,2013-04-01 16:51:00
11:51 AM,39.0,21.0,49,30.28,10.0,NE,4.6,-,N/A,,Mostly Cloudy,50,2013-04-01 17:51:00
12:51 PM,41.0,21.9,47,30.26,10.0,Variable,5.8,-,N/A,,Mostly Cloudy,0,2013-04-01 18:51:00
1:51 PM,43.0,21.0,42,30.25,10.0,NNE,8.1,-,N/A,,Overcast,30,2013-04-01 19:51:00
2:51 PM,45.0,21.0,39,30.24,10.0,NE,5.8,-,N/A,,Partly Cloudy,50,2013-04-01 20:51:00
3:51 PM,43.0,21.0,42,30.22,10.0,ENE,4.6,-,N/A,,Mostly Cloudy,70,2013-04-01 21:51:00
4:51 PM,44.1,19.9,38,30.22,10.0,ENE,4.6,-,N/A,,Scattered Clouds,60,2013-04-01 22:51:00
5:51 PM,44.1,19.9,38,30.21,10.0,Calm,Calm,-,N/A,,Clear,0,2013-04-01 23:51:00
8:51 PM,30.9,21.9,69,30.23,10.0,ESE,4.6,-,N/A,,Clear,110,2013-04-02 02:51:00
9:51 PM,28.0,21.0,75,30.23,10.0,SE,6.9,-,N/A,,Clear,130,2013-04-02 03:51:00
10:51 PM,26.1,19.9,78,30.22,10.0,SE,8.1,-,N/A,,Clear,130,2013-04-02 04:51:00
11:51 PM,24.1,19.0,81,30.21,10.0,SE,5.8,-,N/A,,Clear,130,2013-04-02 05:51:00